createdAt,value
2023-04-08T00:00:10.787Z,14.15
2023-04-08T00:02:38.934Z,14.18
2023-04-08T00:05:09.557Z,15.27
2023-04-08T00:07:37.555Z,13.40
2023-04-08T00:10:06.943Z,13.60
2023-04-08T00:12:35.196Z,15.02
2023-04-08T00:15:03.193Z,15.23
2023-04-08T00:17:31.090Z,16.10
2023-04-08T00:19:59.024Z,14.38
2023-04-08T00:22:28.207Z,13.98
2023-04-08T00:24:56.312Z,15.52
2023-04-08T00:27:25.118Z,14.77
2023-04-08T00:29:53.033Z,15.00
2023-04-08T00:32:21.518Z,15.53
2023-04-08T00:34:49.399Z,15.73
2023-04-08T00:37:17.437Z,15.82
2023-04-08T00:39:46.855Z,14.45
2023-04-08T00:42:14.697Z,15.02
2023-04-08T00:44:42.558Z,15.07
2023-04-08T00:47:13.639Z,13.07
2023-04-08T00:49:41.632Z,14.13
2023-04-08T00:52:09.621Z,14.43
2023-04-08T00:54:38.623Z,15.07
2023-04-08T00:57:07.977Z,15.30
2023-04-08T00:59:36.937Z,14.05
2023-04-08T01:04:50.091Z,14.73
2023-04-08T01:07:21.029Z,15.50
2023-04-08T01:09:53.940Z,14.43
2023-04-08T01:12:28.217Z,14.80
2023-04-08T01:15:02.398Z,15.57
2023-04-08T01:17:31.954Z,16.03
2023-04-08T01:20:01.627Z,15.33
2023-04-08T01:22:38.425Z,16.42
2023-04-08T01:25:09.958Z,13.93
2023-04-08T01:27:39.584Z,15.25
2023-04-08T01:30:10.354Z,15.93
2023-04-08T01:32:40.360Z,16.15
2023-04-08T01:35:10.440Z,15.47
2023-04-08T01:37:39.668Z,16.13
2023-04-08T01:40:10.015Z,15.35
2023-04-08T01:42:41.299Z,16.92
2023-04-08T01:45:11.236Z,16.52
2023-04-08T01:47:40.439Z,16.73
2023-04-08T01:50:10.215Z,17.23
2023-04-08T01:52:39.280Z,16.80
2023-04-08T01:55:07.927Z,17.73
2023-04-08T01:57:39.103Z,17.05
2023-04-08T02:00:11.180Z,17.10
2023-04-08T02:02:48.808Z,18.80
2023-04-08T02:05:17.151Z,17.83
2023-04-08T02:07:46.599Z,18.23
2023-04-08T02:10:14.750Z,18.45
2023-04-08T02:12:43.568Z,20.05
2023-04-08T02:15:13.950Z,19.00
2023-04-08T02:17:47.091Z,18.98
2023-04-08T02:20:19.780Z,18.42
2023-04-08T02:22:51.100Z,18.77
2023-04-08T02:25:24.174Z,19.38
2023-04-08T02:27:53.935Z,18.40
2023-04-08T02:30:24.654Z,21.67
2023-04-08T02:32:54.809Z,21.67
2023-04-08T02:35:24.387Z,18.77
2023-04-08T02:37:52.416Z,20.17
2023-04-08T02:40:24.844Z,21.65
2023-04-08T02:42:52.832Z,20.63
2023-04-08T02:45:21.217Z,19.00
2023-04-08T02:47:52.524Z,20.60
2023-04-08T02:50:20.680Z,20.25
2023-04-08T02:52:48.592Z,21.67
2023-04-08T02:55:16.558Z,22.60
2023-04-08T02:57:44.634Z,21.88
2023-04-08T03:00:13.987Z,24.00
2023-04-08T03:02:42.187Z,21.20
2023-04-08T03:05:12.290Z,22.67
2023-04-08T03:07:40.241Z,23.45
2023-04-08T03:10:09.420Z,22.23
2023-04-08T03:12:37.362Z,23.63
2023-04-08T03:15:06.383Z,22.38
2023-04-08T03:17:34.734Z,23.17
2023-04-08T03:20:04.676Z,24.52
2023-04-08T03:22:34.817Z,24.90
2023-04-08T03:25:02.764Z,24.08
2023-04-08T03:27:30.704Z,24.23
2023-04-08T03:29:58.798Z,22.77
2023-04-08T03:32:26.829Z,23.73
2023-04-08T03:34:54.776Z,23.27
2023-04-08T03:37:22.677Z,22.90
2023-04-08T03:39:51.886Z,24.75
2023-04-08T03:42:19.767Z,22.60
2023-04-08T03:44:47.663Z,22.50
2023-04-08T03:47:15.552Z,23.42
2023-04-08T03:49:43.385Z,25.60
2023-04-08T03:52:11.393Z,23.35
2023-04-08T03:54:39.199Z,25.05
2023-04-08T03:57:08.432Z,24.52
2023-04-08T03:59:36.436Z,23.92
2023-04-08T04:02:04.461Z,24.63
2023-04-08T04:04:32.501Z,27.05
2023-04-08T04:07:00.353Z,24.80
2023-04-08T04:09:28.297Z,24.55
2023-04-08T04:11:56.143Z,26.95
2023-04-08T04:14:25.428Z,24.13
2023-04-08T04:16:53.266Z,26.05
2023-04-08T04:19:21.180Z,23.88
2023-04-08T04:21:49.010Z,24.63
2023-04-08T04:24:16.949Z,25.80
2023-04-08T04:26:44.835Z,29.55
2023-04-08T04:29:12.695Z,26.88
2023-04-08T04:31:42.029Z,26.87
2023-04-08T04:34:10.096Z,26.67
2023-04-08T04:36:37.959Z,26.45
2023-04-08T04:39:05.847Z,29.05
2023-04-08T04:41:35.211Z,29.58
2023-04-08T04:44:03.065Z,29.13
2023-04-08T04:46:31.054Z,30.07
2023-04-08T04:49:00.305Z,33.00
2023-04-08T04:51:28.474Z,30.88
2023-04-08T04:53:56.358Z,31.35
2023-04-08T04:56:25.315Z,27.02
2023-04-08T04:58:53.173Z,31.58
2023-04-08T05:01:21.411Z,32.53
2023-04-08T05:03:49.707Z,29.92
2023-04-08T05:06:18.919Z,34.17
2023-04-08T05:08:46.863Z,32.72
2023-04-08T05:11:14.818Z,32.63
2023-04-08T05:13:42.686Z,31.85
2023-04-08T05:16:10.594Z,35.97
2023-04-08T05:18:38.524Z,34.63
2023-04-08T05:21:06.451Z,33.92
2023-04-08T05:23:35.933Z,32.38
2023-04-08T05:26:03.860Z,32.40
2023-04-08T05:28:31.676Z,32.37
2023-04-08T05:30:59.617Z,35.38
2023-04-08T05:33:27.595Z,32.73
2023-04-08T05:35:55.595Z,32.95
2023-04-08T05:38:23.514Z,31.33
2023-04-08T05:40:52.754Z,33.80
2023-04-08T05:43:20.896Z,33.22
2023-04-08T05:45:48.722Z,30.23
2023-04-08T05:48:16.658Z,30.23
2023-04-08T05:50:44.611Z,32.10
2023-04-08T05:53:12.563Z,26.87
2023-04-08T05:55:40.953Z,28.20
2023-04-08T05:58:10.254Z,27.33
2023-04-08T06:00:38.112Z,28.67
2023-04-08T06:03:06.321Z,27.00
2023-04-08T06:05:34.341Z,27.52
2023-04-08T06:08:02.245Z,27.52
2023-04-08T06:10:52.001Z,28.38
2023-04-08T06:13:21.974Z,29.52
2023-04-08T06:15:50.278Z,29.55
2023-04-08T06:18:18.248Z,30.15
2023-04-08T06:20:46.469Z,28.75
2023-04-08T06:23:14.585Z,28.02
2023-04-08T06:25:42.920Z,26.67
2023-04-08T06:28:10.769Z,29.08
2023-04-08T06:30:39.967Z,30.02
2023-04-08T06:33:07.874Z,27.73
2023-04-08T06:35:37.389Z,28.92
2023-04-08T06:38:05.386Z,26.40
2023-04-08T06:40:33.376Z,25.27
2023-04-08T06:43:01.256Z,25.63
2023-04-08T06:45:35.651Z,24.92
2023-04-08T06:48:06.663Z,26.02
2023-04-08T06:50:34.641Z,23.58
2023-04-08T06:53:02.605Z,24.95
2023-04-08T06:55:30.436Z,25.13
2023-04-08T06:57:58.316Z,23.13
2023-04-08T07:00:26.553Z,19.38
2023-04-08T07:02:54.506Z,19.73
2023-04-08T07:05:23.985Z,22.00
2023-04-08T07:07:51.950Z,19.90
2023-04-08T07:10:20.054Z,19.25
2023-04-08T07:12:47.911Z,18.98
2023-04-08T07:15:15.907Z,20.02
2023-04-08T07:17:43.837Z,20.33
2023-04-08T07:20:13.596Z,20.88
2023-04-08T07:22:42.874Z,20.13
2023-04-08T07:25:11.119Z,18.60
2023-04-08T07:27:39.028Z,18.58
2023-04-08T07:30:08.143Z,18.20
2023-04-08T07:32:36.712Z,20.02
2023-04-08T07:35:05.049Z,19.42
2023-04-08T07:37:33.068Z,18.13
2023-04-08T07:40:02.347Z,18.48
2023-04-08T07:42:30.259Z,18.92
2023-04-08T07:44:58.117Z,18.50
2023-04-08T07:47:26.213Z,18.45
2023-04-08T07:49:54.472Z,19.37
2023-04-08T07:52:22.385Z,18.17
2023-04-08T07:54:50.299Z,17.08
2023-04-08T07:57:19.621Z,18.95
2023-04-08T07:59:47.814Z,18.60
2023-04-08T08:02:15.807Z,18.15
2023-04-08T08:04:43.898Z,19.20
2023-04-08T08:07:11.880Z,18.00
2023-04-08T08:09:39.757Z,18.30
2023-04-08T08:12:07.769Z,17.00
2023-04-08T08:14:36.951Z,18.43
2023-04-08T08:17:05.054Z,17.67
2023-04-08T08:19:32.880Z,16.83
2023-04-08T08:22:00.882Z,18.05
2023-04-08T08:24:28.771Z,18.30
2023-04-08T08:26:56.659Z,17.80
2023-04-08T08:29:24.575Z,18.17
2023-04-08T08:31:53.795Z,18.63
2023-04-08T08:34:21.687Z,18.98
2023-04-08T08:36:49.553Z,18.88
2023-04-08T08:39:17.392Z,18.42
2023-04-08T08:41:45.898Z,17.50
2023-04-08T08:44:14.122Z,17.55
2023-04-08T08:46:45.536Z,18.83
2023-04-08T08:49:15.484Z,18.77
2023-04-08T08:51:46.573Z,18.33
2023-04-08T08:54:15.961Z,18.25
2023-04-08T08:56:44.020Z,19.30
2023-04-08T08:59:11.910Z,18.00
2023-04-08T09:01:41.588Z,18.50
2023-04-08T09:04:12.493Z,18.10
2023-04-08T09:06:42.208Z,19.58
2023-04-08T09:09:13.193Z,19.45
2023-04-08T09:11:42.601Z,20.15
2023-04-08T09:14:21.616Z,19.00
2023-04-08T09:16:49.880Z,20.50
2023-04-08T09:19:17.947Z,20.38
2023-04-08T09:21:47.634Z,21.42
2023-04-08T09:24:29.413Z,20.33
2023-04-08T09:26:57.580Z,20.38
2023-04-08T09:29:26.962Z,20.80
2023-04-08T09:31:57.531Z,20.65
2023-04-08T09:34:28.258Z,21.42
2023-04-08T09:36:57.701Z,21.52
2023-04-08T09:39:25.775Z,22.52
2023-04-08T09:41:53.743Z,21.67
2023-04-08T09:44:23.519Z,22.00
2023-04-08T09:47:00.321Z,23.02
2023-04-08T09:49:30.066Z,22.90
2023-04-08T09:52:08.445Z,22.98
2023-04-08T09:54:49.025Z,25.05
2023-04-08T09:57:23.056Z,24.98
2023-04-08T10:00:04.693Z,24.58
2023-04-08T10:02:50.331Z,24.73
2023-04-08T10:05:19.310Z,25.75
2023-04-08T10:07:49.690Z,27.33
2023-04-08T10:10:18.001Z,26.93
2023-04-08T10:12:46.353Z,27.70
2023-04-08T10:15:25.359Z,27.90
2023-04-08T10:17:53.729Z,27.02
2023-04-08T10:20:44.696Z,25.35
2023-04-08T10:23:15.534Z,29.13
2023-04-08T10:25:45.033Z,29.23
2023-04-08T10:28:26.067Z,24.80
2023-04-08T10:30:54.684Z,27.38
2023-04-08T10:33:24.442Z,24.65
2023-04-08T10:35:55.601Z,22.63
2023-04-08T10:38:24.924Z,23.60
2023-04-08T10:40:53.680Z,21.98
2023-04-08T10:43:22.129Z,20.50
2023-04-08T10:45:51.425Z,19.38
2023-04-08T10:48:22.380Z,19.23
2023-04-08T10:50:57.417Z,21.30
2023-04-08T10:53:28.258Z,20.92
2023-04-08T10:55:56.319Z,20.90
2023-04-08T10:58:24.304Z,20.33
2023-04-08T11:00:52.645Z,21.50
2023-04-08T11:03:20.811Z,20.77
2023-04-08T11:05:50.864Z,20.40
2023-04-08T11:08:20.893Z,19.97
2023-04-08T11:10:51.586Z,19.70
2023-04-08T11:13:19.471Z,19.02
2023-04-08T11:15:47.424Z,19.30
2023-04-08T11:18:16.380Z,18.48
2023-04-08T11:20:45.892Z,19.33
2023-04-08T11:23:15.368Z,22.57
2023-04-08T11:25:44.273Z,22.20
2023-04-08T11:28:14.404Z,23.05
2023-04-08T11:30:42.739Z,21.70
2023-04-08T11:33:11.221Z,21.42
2023-04-08T11:35:42.253Z,19.85
2023-04-08T11:38:10.527Z,19.30
2023-04-08T11:40:38.929Z,20.02
2023-04-08T11:43:11.314Z,19.57
2023-04-08T11:45:41.859Z,20.02
2023-04-08T11:48:11.317Z,19.38
2023-04-08T11:50:39.375Z,20.33
2023-04-08T11:53:17.690Z,20.48
2023-04-08T11:55:45.671Z,20.27
2023-04-08T11:58:13.605Z,19.40
2023-04-08T12:00:43.652Z,20.13
2023-04-08T12:03:13.518Z,20.45
2023-04-08T12:05:42.517Z,20.08
2023-04-08T12:08:10.548Z,18.73
2023-04-08T12:10:38.559Z,21.25
2023-04-08T12:13:06.649Z,20.00
2023-04-08T12:15:34.755Z,19.97
2023-04-08T12:18:04.054Z,19.65
2023-04-08T12:20:32.000Z,20.45
2023-04-08T12:22:59.833Z,20.52
2023-04-08T12:25:28.044Z,17.55
2023-04-08T12:27:56.076Z,19.42
2023-04-08T12:30:23.930Z,19.42
2023-04-08T12:32:53.251Z,18.77
2023-04-08T12:35:22.792Z,18.33
2023-04-08T12:37:50.751Z,18.67
2023-04-08T12:40:19.193Z,13.73
2023-04-08T12:42:48.388Z,13.43
2023-04-08T12:45:16.556Z,12.80
2023-04-08T12:47:44.532Z,13.98
2023-04-08T12:50:12.386Z,13.60
2023-04-08T12:52:41.615Z,13.20
2023-04-08T12:55:10.545Z,14.30
2023-04-08T12:57:38.443Z,13.50
2023-04-08T13:00:07.588Z,8.73
2023-04-08T13:02:35.616Z,9.85
2023-04-08T13:05:03.614Z,10.20
2023-04-08T13:07:31.512Z,10.55
2023-04-08T13:10:00.964Z,10.90
2023-04-08T13:12:28.885Z,11.32
2023-04-08T13:14:56.773Z,11.95
2023-04-08T13:17:24.896Z,10.23
2023-04-08T13:19:52.973Z,10.27
2023-04-08T13:22:20.857Z,9.90
2023-04-08T13:24:48.835Z,9.97
2023-04-08T13:27:18.103Z,9.02
2023-04-08T13:29:46.026Z,9.20
2023-04-08T13:32:13.887Z,10.90
2023-04-08T13:34:42.367Z,10.25
2023-04-08T13:37:10.313Z,10.45
2023-04-08T13:39:38.285Z,10.13
2023-04-08T13:42:06.146Z,11.25
2023-04-08T13:44:35.427Z,11.55
2023-04-08T13:47:03.370Z,10.85
2023-04-08T13:49:31.461Z,10.60
2023-04-08T13:51:59.393Z,11.68
2023-04-08T13:54:27.625Z,11.70
2023-04-08T13:56:55.715Z,11.10
2023-04-08T13:59:23.635Z,12.20
2023-04-08T14:01:54.184Z,12.32
2023-04-08T14:04:22.578Z,13.43
2023-04-08T14:06:52.975Z,13.38
2023-04-08T14:09:21.569Z,15.38
2023-04-08T14:11:49.476Z,16.25
2023-04-08T14:14:17.431Z,16.80
2023-04-08T14:16:45.434Z,16.45
2023-04-08T14:19:15.327Z,16.52
2023-04-08T14:21:43.368Z,16.47
2023-04-08T14:24:11.368Z,16.42
2023-04-08T14:26:39.316Z,16.00
2023-04-08T14:29:08.321Z,16.80
2023-04-08T14:31:36.555Z,16.38
2023-04-08T14:34:05.043Z,15.10
2023-04-08T14:36:34.318Z,15.00
2023-04-08T14:39:02.644Z,14.70
2023-04-08T14:41:30.607Z,15.32
2023-04-08T14:43:58.484Z,14.25
2023-04-08T14:46:29.049Z,15.05
2023-04-08T14:48:58.696Z,15.45
2023-04-08T14:51:26.622Z,16.13
2023-04-08T14:53:55.940Z,17.05
2023-04-08T14:56:23.827Z,16.65
2023-04-08T14:58:52.015Z,16.50
2023-04-08T15:01:19.974Z,16.55
2023-04-08T15:03:48.123Z,17.00
2023-04-08T15:06:17.679Z,16.92
2023-04-08T15:08:46.005Z,16.65
2023-04-08T15:11:15.472Z,16.67
2023-04-08T15:13:43.389Z,17.15
2023-04-08T15:16:11.332Z,17.55
2023-04-08T15:18:39.434Z,17.00
2023-04-08T15:21:07.262Z,16.20
2023-04-08T15:23:35.488Z,16.45
2023-04-08T15:26:03.413Z,15.18
2023-04-08T15:28:33.088Z,14.20
2023-04-08T15:31:01.624Z,13.27
2023-04-08T15:33:29.567Z,11.60
2023-04-08T15:35:59.666Z,10.35
2023-04-08T15:38:28.101Z,10.90
2023-04-08T15:40:55.980Z,11.13
2023-04-08T15:43:23.827Z,10.38
2023-04-08T15:45:53.000Z,10.30
2023-04-08T15:48:21.309Z,10.85
2023-04-08T15:50:49.295Z,11.23
2023-04-08T15:53:17.252Z,11.00
2023-04-08T15:55:45.179Z,10.93
2023-04-08T15:58:13.045Z,10.82
2023-04-08T16:00:41.007Z,11.10
2023-04-08T16:03:12.012Z,10.82
2023-04-08T16:05:41.608Z,10.85
2023-04-08T16:08:10.004Z,11.43
2023-04-08T16:10:37.872Z,11.00
2023-04-08T16:13:06.205Z,9.90
2023-04-08T16:15:34.157Z,9.65
2023-04-08T16:18:02.923Z,9.80
2023-04-08T16:20:32.272Z,9.88
2023-04-08T16:23:00.126Z,9.55
2023-04-08T16:25:28.429Z,9.30
2023-04-08T16:27:56.597Z,9.50
2023-04-08T16:30:24.518Z,9.00
2023-04-08T16:32:52.408Z,9.10
2023-04-08T16:35:22.251Z,9.30
2023-04-08T16:37:51.476Z,10.05
2023-04-08T16:40:19.414Z,8.40
2023-04-08T16:42:47.324Z,8.57
2023-04-08T16:45:15.793Z,7.85
2023-04-08T16:47:44.420Z,7.88
2023-04-08T16:50:12.382Z,7.28
2023-04-08T16:52:40.279Z,7.22
2023-04-08T16:57:38.825Z,7.32
2023-04-08T17:00:08.022Z,6.95
2023-04-08T17:02:36.086Z,7.20
2023-04-08T17:05:04.231Z,7.32
2023-04-08T17:07:32.361Z,7.15
2023-04-08T17:10:00.728Z,7.23
2023-04-08T17:12:29.955Z,7.00
2023-04-08T17:14:57.844Z,6.85
2023-04-08T17:17:25.859Z,7.38
2023-04-08T17:19:53.748Z,7.65
2023-04-08T17:22:21.918Z,7.55
2023-04-08T17:24:49.803Z,7.13
2023-04-08T17:27:17.945Z,7.47
2023-04-08T17:29:47.152Z,7.78
2023-04-08T17:32:15.059Z,7.00
2023-04-08T17:34:42.908Z,7.85
2023-04-08T17:37:11.041Z,7.47
2023-04-08T17:39:40.711Z,7.07
2023-04-08T17:42:09.150Z,7.25
2023-04-08T17:44:41.971Z,8.75
2023-04-08T17:47:11.433Z,9.00
2023-04-08T17:49:39.323Z,9.40
2023-04-08T17:52:26.032Z,9.88
2023-04-08T17:54:55.106Z,9.18
2023-04-08T17:57:23.010Z,8.93
2023-04-08T17:59:51.340Z,9.32
2023-04-08T18:02:20.864Z,9.75
2023-04-08T18:04:50.493Z,9.52
2023-04-08T18:07:18.371Z,9.77
2023-04-08T18:09:48.843Z,9.52
2023-04-08T18:12:16.807Z,9.30
2023-04-08T18:14:44.705Z,9.70
2023-04-08T18:17:14.038Z,9.38
2023-04-08T18:19:43.260Z,10.15
2023-04-08T18:22:11.077Z,11.18
2023-04-08T18:24:38.935Z,11.15
2023-04-08T18:27:08.360Z,10.20
2023-04-08T18:29:36.611Z,10.37
2023-04-08T18:32:04.634Z,10.40
2023-04-08T18:34:32.610Z,10.95
2023-04-08T18:37:01.879Z,11.25
2023-04-08T18:39:29.712Z,10.98
2023-04-08T18:41:57.725Z,10.57
2023-04-08T18:44:25.699Z,11.40
2023-04-08T18:46:53.626Z,11.40
2023-04-08T18:49:21.808Z,11.50
2023-04-08T18:52:01.173Z,11.87
2023-04-08T18:54:32.519Z,11.32
2023-04-08T18:57:00.558Z,11.95
2023-04-08T18:59:29.847Z,11.77
2023-04-08T19:01:58.222Z,12.40
2023-04-08T19:04:26.410Z,11.15
2023-04-08T19:06:54.431Z,12.10
2023-04-08T19:09:22.358Z,11.80
2023-04-08T19:11:51.542Z,11.20
2023-04-08T19:14:19.469Z,11.93
2023-04-08T19:16:47.330Z,11.48
2023-04-08T19:19:16.124Z,12.10
2023-04-08T19:21:44.137Z,12.70
2023-04-08T19:24:11.990Z,12.45
2023-04-08T19:26:39.844Z,12.13
2023-04-08T19:29:09.549Z,11.95
2023-04-08T19:31:37.609Z,11.15
2023-04-08T19:34:05.648Z,12.23
2023-04-08T19:36:33.556Z,11.68
2023-04-08T19:39:01.513Z,12.73
2023-04-08T19:41:29.366Z,12.90
2023-04-08T19:43:57.270Z,13.30
2023-04-08T19:46:26.535Z,12.57
2023-04-08T19:48:56.074Z,12.68
2023-04-08T19:51:24.280Z,13.13
2023-04-08T19:53:54.136Z,13.75
2023-04-08T19:56:22.212Z,12.18
2023-04-08T19:58:50.626Z,12.82
2023-04-08T20:01:18.822Z,12.43
2023-04-08T20:03:50.391Z,12.95
2023-04-08T20:06:19.013Z,12.75
2023-04-08T20:08:47.185Z,12.77
2023-04-08T20:11:15.052Z,12.15
2023-04-08T20:13:43.129Z,12.65
2023-04-08T20:16:11.067Z,13.07
2023-04-08T20:18:39.080Z,13.65
2023-04-08T20:21:10.153Z,13.98
2023-04-08T20:23:43.860Z,13.63
2023-04-08T20:26:12.421Z,13.38
2023-04-08T20:28:40.753Z,13.05
2023-04-08T20:31:09.311Z,12.55
2023-04-08T20:33:38.250Z,13.23
2023-04-08T20:36:06.282Z,13.07
2023-04-08T20:38:36.753Z,13.80
2023-04-08T20:41:04.944Z,12.48
2023-04-08T20:43:32.862Z,13.45
2023-04-08T20:46:01.064Z,13.45
2023-04-08T20:48:30.239Z,12.95
2023-04-08T20:50:58.437Z,13.40
2023-04-08T20:53:26.471Z,13.32
2023-04-08T20:55:55.750Z,12.35
2023-04-08T20:58:23.597Z,12.70
2023-04-08T21:00:51.459Z,13.57
2023-04-08T21:03:19.720Z,13.63
2023-04-08T21:05:47.718Z,13.63
2023-04-08T21:08:15.704Z,13.20
2023-04-08T21:10:43.634Z,13.15
2023-04-08T21:13:13.016Z,13.43
2023-04-08T21:15:41.051Z,13.33
2023-04-08T21:18:11.073Z,13.13
2023-04-08T21:20:40.930Z,13.48
2023-04-08T21:23:08.887Z,13.20
2023-04-08T21:25:36.744Z,12.97
2023-04-08T21:28:04.608Z,13.98
2023-04-08T21:30:33.784Z,13.60
2023-04-08T21:33:01.767Z,13.23
2023-04-08T21:35:29.733Z,13.30
2023-04-08T21:37:57.600Z,13.20
2023-04-08T21:40:25.512Z,12.88
2023-04-08T21:42:53.525Z,13.23
2023-04-08T21:45:21.660Z,13.68
2023-04-08T21:47:50.945Z,13.25
2023-04-08T21:50:19.095Z,13.82
2023-04-08T21:52:46.964Z,13.88
2023-04-08T21:55:14.841Z,13.55
2023-04-08T21:57:42.771Z,14.52
2023-04-08T22:00:13.336Z,14.40
2023-04-08T22:02:45.185Z,13.93
2023-04-08T22:05:14.526Z,14.75
2023-04-08T22:07:42.494Z,16.35
2023-04-08T22:10:11.342Z,14.93
2023-04-08T22:12:39.305Z,14.77
2023-04-08T22:15:08.431Z,16.13
2023-04-08T22:17:36.377Z,17.15
2023-04-08T22:20:04.500Z,16.60
2023-04-08T22:22:33.836Z,16.52
2023-04-08T22:25:01.705Z,16.35
2023-04-08T22:27:29.646Z,16.70
2023-04-08T22:29:57.592Z,16.42
2023-04-08T22:32:25.584Z,15.52
2023-04-08T22:34:53.500Z,16.42
2023-04-08T22:37:21.752Z,17.15
2023-04-08T22:39:50.919Z,16.75
2023-04-08T22:42:18.807Z,17.77
2023-04-08T22:44:46.700Z,17.65
2023-04-08T22:47:14.574Z,19.58
2023-04-08T22:49:42.673Z,20.25
2023-04-08T22:52:10.741Z,24.17
2023-04-08T22:54:38.632Z,25.35
2023-04-08T22:57:07.925Z,24.38
2023-04-08T22:59:35.836Z,26.67
2023-04-08T23:02:03.850Z,28.10
2023-04-08T23:04:31.903Z,28.85
2023-04-08T23:06:59.912Z,34.50
2023-04-08T23:09:28.215Z,31.98
2023-04-08T23:11:56.174Z,33.60
2023-04-08T23:14:25.752Z,34.75
2023-04-08T23:16:53.663Z,35.03
2023-04-08T23:19:21.581Z,35.17
2023-04-08T23:21:49.463Z,36.30
2023-04-08T23:24:17.377Z,37.80
2023-04-08T23:26:45.935Z,39.17
2023-04-08T23:29:13.860Z,39.20
2023-04-08T23:31:43.599Z,39.78
2023-04-08T23:34:11.651Z,40.37
2023-04-08T23:36:39.604Z,39.40
2023-04-08T23:39:07.592Z,40.38
2023-04-08T23:41:35.407Z,41.28
2023-04-08T23:44:03.272Z,41.80
2023-04-08T23:46:31.276Z,41.20
2023-04-08T23:49:00.612Z,41.70
2023-04-08T23:51:28.812Z,42.75
2023-04-08T23:53:56.679Z,43.13
2023-04-08T23:56:24.630Z,42.08
2023-04-08T23:58:52.795Z,41.97
